sensor_id;sensor_type;location;lat;lon;timestamp;P1;durP1;ratioP1;P2;durP2;ratioP2
11924;SDS011;6022;48.768;18.608;2022-11-15T00:01:17;3.43;;;2.40;;
11924;SDS011;6022;48.768;18.608;2022-11-15T00:03:45;5.53;;;2.50;;
11924;SDS011;6022;48.768;18.608;2022-11-15T00:06:16;2.90;;;2.10;;
11924;SDS011;6022;48.768;18.608;2022-11-15T00:08:44;6.13;;;3.87;;
11924;SDS011;6022;48.768;18.608;2022-11-15T00:11:11;2.80;;;2.33;;
11924;SDS011;6022;48.768;18.608;2022-11-15T00:13:39;7.77;;;3.60;;
11924;SDS011;6022;48.768;18.608;2022-11-15T00:16:08;3.07;;;2.43;;
11924;SDS011;6022;48.768;18.608;2022-11-15T00:18:37;5.70;;;3.20;;
11924;SDS011;6022;48.768;18.608;2022-11-15T00:21:06;2.83;;;2.57;;
11924;SDS011;6022;48.768;18.608;2022-11-15T00:23:37;2.83;;;2.27;;
11924;SDS011;6022;48.768;18.608;2022-11-15T00:26:04;5.13;;;2.80;;
11924;SDS011;6022;48.768;18.608;2022-11-15T00:28:32;2.97;;;2.10;;
11924;SDS011;6022;48.768;18.608;2022-11-15T00:31:03;1.93;;;1.73;;
11924;SDS011;6022;48.768;18.608;2022-11-15T00:33:33;4.63;;;2.73;;
11924;SDS011;6022;48.768;18.608;2022-11-15T00:36:04;1.70;;;1.60;;
11924;SDS011;6022;48.768;18.608;2022-11-15T00:38:36;4.37;;;2.87;;
11924;SDS011;6022;48.768;18.608;2022-11-15T00:41:06;2.80;;;2.60;;
11924;SDS011;6022;48.768;18.608;2022-11-15T00:43:35;2.77;;;2.47;;
11924;SDS011;6022;48.768;18.608;2022-11-15T00:46:03;4.93;;;4.13;;
11924;SDS011;6022;48.768;18.608;2022-11-15T00:48:30;5.53;;;2.10;;
11924;SDS011;6022;48.768;18.608;2022-11-15T00:50:58;1.47;;;1.37;;
11924;SDS011;6022;48.768;18.608;2022-11-15T00:53:25;2.00;;;1.90;;
11924;SDS011;6022;48.768;18.608;2022-11-15T00:55:53;4.87;;;3.80;;
11924;SDS011;6022;48.768;18.608;2022-11-15T00:58:20;6.20;;;2.90;;
11924;SDS011;6022;48.768;18.608;2022-11-15T01:00:47;4.57;;;2.17;;
11924;SDS011;6022;48.768;18.608;2022-11-15T01:03:15;7.80;;;3.67;;
11924;SDS011;6022;48.768;18.608;2022-11-15T01:05:45;2.57;;;2.37;;
11924;SDS011;6022;48.768;18.608;2022-11-15T01:08:14;2.43;;;1.77;;
11924;SDS011;6022;48.768;18.608;2022-11-15T01:10:43;3.07;;;2.77;;
11924;SDS011;6022;48.768;18.608;2022-11-15T01:13:10;2.17;;;2.03;;
11924;SDS011;6022;48.768;18.608;2022-11-15T01:15:40;4.87;;;2.57;;
11924;SDS011;6022;48.768;18.608;2022-11-15T01:18:08;2.43;;;2.17;;
11924;SDS011;6022;48.768;18.608;2022-11-15T01:20:41;5.53;;;2.63;;
11924;SDS011;6022;48.768;18.608;2022-11-15T01:23:09;2.57;;;2.27;;
11924;SDS011;6022;48.768;18.608;2022-11-15T01:25:37;2.00;;;1.90;;
11924;SDS011;6022;48.768;18.608;2022-11-15T01:28:04;3.83;;;1.73;;
11924;SDS011;6022;48.768;18.608;2022-11-15T01:30:31;2.37;;;1.53;;
11924;SDS011;6022;48.768;18.608;2022-11-15T01:32:59;1.93;;;1.57;;
11924;SDS011;6022;48.768;18.608;2022-11-15T01:35:26;5.20;;;2.03;;
11924;SDS011;6022;48.768;18.608;2022-11-15T01:37:53;6.77;;;3.03;;
11924;SDS011;6022;48.768;18.608;2022-11-15T01:40:21;3.60;;;3.27;;
11924;SDS011;6022;48.768;18.608;2022-11-15T01:42:48;5.70;;;2.50;;
11924;SDS011;6022;48.768;18.608;2022-11-15T01:45:15;4.00;;;2.37;;
11924;SDS011;6022;48.768;18.608;2022-11-15T01:47:44;4.90;;;3.00;;
11924;SDS011;6022;48.768;18.608;2022-11-15T01:50:19;4.03;;;2.53;;
11924;SDS011;6022;48.768;18.608;2022-11-15T01:52:54;4.40;;;1.93;;
11924;SDS011;6022;48.768;18.608;2022-11-15T01:55:22;2.03;;;1.87;;
11924;SDS011;6022;48.768;18.608;2022-11-15T01:57:54;2.30;;;1.87;;
11924;SDS011;6022;48.768;18.608;2022-11-15T02:00:28;1.83;;;1.73;;
11924;SDS011;6022;48.768;18.608;2022-11-15T02:02:56;2.07;;;1.87;;
11924;SDS011;6022;48.768;18.608;2022-11-15T02:05:24;3.13;;;2.63;;
11924;SDS011;6022;48.768;18.608;2022-11-15T02:07:52;3.60;;;2.53;;
11924;SDS011;6022;48.768;18.608;2022-11-15T02:10:21;4.87;;;3.67;;
11924;SDS011;6022;48.768;18.608;2022-11-15T02:12:51;2.00;;;1.83;;
11924;SDS011;6022;48.768;18.608;2022-11-15T02:15:21;3.87;;;3.23;;
11924;SDS011;6022;48.768;18.608;2022-11-15T02:21:02;3.53;;;2.10;;
11924;SDS011;6022;48.768;18.608;2022-11-15T02:23:55;3.97;;;2.60;;
11924;SDS011;6022;48.768;18.608;2022-11-15T02:33:04;4.60;;;3.43;;
11924;SDS011;6022;48.768;18.608;2022-11-15T02:46:54;5.20;;;2.30;;
11924;SDS011;6022;48.768;18.608;2022-11-15T02:52:45;5.63;;;2.33;;
11924;SDS011;6022;48.768;18.608;2022-11-15T02:55:28;1.53;;;1.43;;
11924;SDS011;6022;48.768;18.608;2022-11-15T03:03:59;2.23;;;1.77;;
11924;SDS011;6022;48.768;18.608;2022-11-15T03:07:02;4.07;;;2.63;;
11924;SDS011;6022;48.768;18.608;2022-11-15T03:09:54;2.77;;;1.60;;
11924;SDS011;6022;48.768;18.608;2022-11-15T03:12:44;3.60;;;2.83;;
11924;SDS011;6022;48.768;18.608;2022-11-15T03:15:27;2.77;;;1.40;;
11924;SDS011;6022;48.768;18.608;2022-11-15T03:18:02;6.33;;;1.63;;
11924;SDS011;6022;48.768;18.608;2022-11-15T03:20:55;3.37;;;1.37;;
11924;SDS011;6022;48.768;18.608;2022-11-15T03:23:31;3.67;;;1.87;;
11924;SDS011;6022;48.768;18.608;2022-11-15T03:26:00;2.37;;;2.17;;
11924;SDS011;6022;48.768;18.608;2022-11-15T03:28:32;1.00;;;0.87;;
11924;SDS011;6022;48.768;18.608;2022-11-15T03:31:15;2.47;;;0.97;;
11924;SDS011;6022;48.768;18.608;2022-11-15T03:34:19;2.53;;;0.90;;
11924;SDS011;6022;48.768;18.608;2022-11-15T03:37:01;1.17;;;1.03;;
11924;SDS011;6022;48.768;18.608;2022-11-15T03:39:29;2.13;;;1.90;;
11924;SDS011;6022;48.768;18.608;2022-11-15T03:45:17;0.10;;;0.10;;
11924;SDS011;6022;48.768;18.608;2022-11-15T03:48:04;1.60;;;0.93;;
11924;SDS011;6022;48.768;18.608;2022-11-15T03:50:41;3.80;;;1.53;;
11924;SDS011;6022;48.768;18.608;2022-11-15T03:53:10;2.57;;;0.83;;
11924;SDS011;6022;48.768;18.608;2022-11-15T03:55:39;1.07;;;1.07;;
11924;SDS011;6022;48.768;18.608;2022-11-15T03:58:07;2.77;;;1.93;;
11924;SDS011;6022;48.768;18.608;2022-11-15T04:00:34;3.40;;;1.63;;
11924;SDS011;6022;48.768;18.608;2022-11-15T04:03:01;3.47;;;2.23;;
11924;SDS011;6022;48.768;18.608;2022-11-15T04:05:28;3.43;;;1.93;;
11924;SDS011;6022;48.768;18.608;2022-11-15T04:07:56;0.73;;;0.73;;
11924;SDS011;6022;48.768;18.608;2022-11-15T04:10:23;5.37;;;2.73;;
11924;SDS011;6022;48.768;18.608;2022-11-15T04:12:50;4.83;;;1.60;;
11924;SDS011;6022;48.768;18.608;2022-11-15T04:15:20;1.23;;;1.13;;
11924;SDS011;6022;48.768;18.608;2022-11-15T04:17:50;1.70;;;1.50;;
11924;SDS011;6022;48.768;18.608;2022-11-15T04:20:24;2.33;;;1.30;;
11924;SDS011;6022;48.768;18.608;2022-11-15T04:23:16;2.27;;;1.60;;
11924;SDS011;6022;48.768;18.608;2022-11-15T04:26:08;3.03;;;1.60;;
11924;SDS011;6022;48.768;18.608;2022-11-15T04:28:40;2.90;;;2.67;;
11924;SDS011;6022;48.768;18.608;2022-11-15T04:31:26;2.50;;;2.37;;
11924;SDS011;6022;48.768;18.608;2022-11-15T04:33:54;3.83;;;2.97;;
11924;SDS011;6022;48.768;18.608;2022-11-15T04:36:22;0.97;;;0.97;;
11924;SDS011;6022;48.768;18.608;2022-11-15T04:39:08;6.33;;;1.73;;
11924;SDS011;6022;48.768;18.608;2022-11-15T04:41:35;3.83;;;2.77;;
11924;SDS011;6022;48.768;18.608;2022-11-15T04:44:02;4.60;;;2.30;;
11924;SDS011;6022;48.768;18.608;2022-11-15T04:46:30;3.40;;;2.00;;
11924;SDS011;6022;48.768;18.608;2022-11-15T04:48:57;3.13;;;2.23;;
11924;SDS011;6022;48.768;18.608;2022-11-15T04:51:25;2.20;;;2.00;;
11924;SDS011;6022;48.768;18.608;2022-11-15T04:53:53;2.03;;;1.93;;
11924;SDS011;6022;48.768;18.608;2022-11-15T04:56:20;3.47;;;2.43;;
11924;SDS011;6022;48.768;18.608;2022-11-15T04:58:50;2.80;;;1.97;;
11924;SDS011;6022;48.768;18.608;2022-11-15T05:01:18;2.37;;;2.17;;
11924;SDS011;6022;48.768;18.608;2022-11-15T05:03:45;0.80;;;0.80;;
11924;SDS011;6022;48.768;18.608;2022-11-15T05:06:31;2.00;;;1.83;;
11924;SDS011;6022;48.768;18.608;2022-11-15T05:08:58;2.93;;;2.57;;
11924;SDS011;6022;48.768;18.608;2022-11-15T05:11:25;1.40;;;1.13;;
11924;SDS011;6022;48.768;18.608;2022-11-15T05:13:53;4.73;;;1.97;;
11924;SDS011;6022;48.768;18.608;2022-11-15T05:16:21;5.23;;;2.77;;
11924;SDS011;6022;48.768;18.608;2022-11-15T05:18:53;2.07;;;1.97;;
11924;SDS011;6022;48.768;18.608;2022-11-15T05:21:21;1.70;;;1.60;;
11924;SDS011;6022;48.768;18.608;2022-11-15T05:23:48;2.30;;;2.17;;
11924;SDS011;6022;48.768;18.608;2022-11-15T05:26:17;2.30;;;2.07;;
11924;SDS011;6022;48.768;18.608;2022-11-15T05:28:44;4.70;;;2.70;;
11924;SDS011;6022;48.768;18.608;2022-11-15T05:31:13;3.97;;;2.70;;
11924;SDS011;6022;48.768;18.608;2022-11-15T05:33:42;2.77;;;2.47;;
11924;SDS011;6022;48.768;18.608;2022-11-15T05:36:21;1.60;;;1.50;;
11924;SDS011;6022;48.768;18.608;2022-11-15T05:39:02;5.10;;;2.17;;
11924;SDS011;6022;48.768;18.608;2022-11-15T05:41:55;3.60;;;3.00;;
11924;SDS011;6022;48.768;18.608;2022-11-15T05:44:36;2.77;;;1.87;;
11924;SDS011;6022;48.768;18.608;2022-11-15T05:47:17;1.63;;;1.53;;
11924;SDS011;6022;48.768;18.608;2022-11-15T05:49:51;1.77;;;1.67;;
11924;SDS011;6022;48.768;18.608;2022-11-15T05:52:20;2.73;;;2.53;;
11924;SDS011;6022;48.768;18.608;2022-11-15T05:54:55;1.67;;;1.40;;
11924;SDS011;6022;48.768;18.608;2022-11-15T05:57:24;2.67;;;1.93;;
11924;SDS011;6022;48.768;18.608;2022-11-15T05:59:52;2.17;;;1.60;;
11924;SDS011;6022;48.768;18.608;2022-11-15T06:02:21;2.63;;;2.40;;
11924;SDS011;6022;48.768;18.608;2022-11-15T06:04:48;3.40;;;2.27;;
11924;SDS011;6022;48.768;18.608;2022-11-15T06:07:16;2.60;;;2.30;;
11924;SDS011;6022;48.768;18.608;2022-11-15T06:09:43;1.50;;;1.40;;
11924;SDS011;6022;48.768;18.608;2022-11-15T06:12:10;5.33;;;4.20;;
11924;SDS011;6022;48.768;18.608;2022-11-15T06:14:37;15.37;;;4.47;;
11924;SDS011;6022;48.768;18.608;2022-11-15T06:17:04;3.97;;;2.33;;
11924;SDS011;6022;48.768;18.608;2022-11-15T06:19:36;4.53;;;2.53;;
11924;SDS011;6022;48.768;18.608;2022-11-15T06:22:04;1.93;;;1.73;;
11924;SDS011;6022;48.768;18.608;2022-11-15T06:24:31;5.10;;;2.77;;
11924;SDS011;6022;48.768;18.608;2022-11-15T06:27:00;5.07;;;3.70;;
11924;SDS011;6022;48.768;18.608;2022-11-15T06:29:27;1.97;;;1.87;;
11924;SDS011;6022;48.768;18.608;2022-11-15T06:31:54;3.77;;;2.03;;
11924;SDS011;6022;48.768;18.608;2022-11-15T06:34:21;2.93;;;2.73;;
11924;SDS011;6022;48.768;18.608;2022-11-15T06:36:49;3.77;;;2.40;;
11924;SDS011;6022;48.768;18.608;2022-11-15T06:39:16;1.87;;;1.77;;
11924;SDS011;6022;48.768;18.608;2022-11-15T06:41:43;9.93;;;1.90;;
11924;SDS011;6022;48.768;18.608;2022-11-15T06:44:11;1.73;;;1.63;;
11924;SDS011;6022;48.768;18.608;2022-11-15T06:46:38;2.23;;;2.13;;
11924;SDS011;6022;48.768;18.608;2022-11-15T06:49:05;3.70;;;2.60;;
11924;SDS011;6022;48.768;18.608;2022-11-15T06:51:35;2.83;;;2.57;;
11924;SDS011;6022;48.768;18.608;2022-11-15T06:54:02;2.70;;;1.57;;
11924;SDS011;6022;48.768;18.608;2022-11-15T06:56:29;4.13;;;2.07;;
11924;SDS011;6022;48.768;18.608;2022-11-15T06:58:56;2.57;;;2.40;;
11924;SDS011;6022;48.768;18.608;2022-11-15T07:01:23;2.60;;;2.40;;
11924;SDS011;6022;48.768;18.608;2022-11-15T07:03:51;2.43;;;2.23;;
11924;SDS011;6022;48.768;18.608;2022-11-15T07:06:18;5.67;;;2.80;;
11924;SDS011;6022;48.768;18.608;2022-11-15T07:08:46;2.87;;;2.53;;
11924;SDS011;6022;48.768;18.608;2022-11-15T07:11:13;3.77;;;1.73;;
11924;SDS011;6022;48.768;18.608;2022-11-15T07:13:40;1.63;;;1.47;;
11924;SDS011;6022;48.768;18.608;2022-11-15T07:16:08;3.00;;;2.10;;
11924;SDS011;6022;48.768;18.608;2022-11-15T07:18:37;2.00;;;1.47;;
11924;SDS011;6022;48.768;18.608;2022-11-15T07:21:07;2.53;;;2.33;;
11924;SDS011;6022;48.768;18.608;2022-11-15T07:23:37;3.83;;;2.53;;
11924;SDS011;6022;48.768;18.608;2022-11-15T07:26:06;3.07;;;2.70;;
11924;SDS011;6022;48.768;18.608;2022-11-15T07:28:35;5.23;;;2.90;;
11924;SDS011;6022;48.768;18.608;2022-11-15T07:31:07;5.83;;;2.90;;
11924;SDS011;6022;48.768;18.608;2022-11-15T07:33:36;3.40;;;2.50;;
11924;SDS011;6022;48.768;18.608;2022-11-15T07:36:04;2.40;;;2.20;;
11924;SDS011;6022;48.768;18.608;2022-11-15T07:38:33;4.30;;;2.87;;
11924;SDS011;6022;48.768;18.608;2022-11-15T07:41:08;3.03;;;2.57;;
11924;SDS011;6022;48.768;18.608;2022-11-15T07:43:35;3.53;;;2.87;;
11924;SDS011;6022;48.768;18.608;2022-11-15T07:46:06;5.83;;;3.20;;
11924;SDS011;6022;48.768;18.608;2022-11-15T07:48:36;4.23;;;3.87;;
11924;SDS011;6022;48.768;18.608;2022-11-15T07:51:14;5.27;;;3.07;;
11924;SDS011;6022;48.768;18.608;2022-11-15T07:53:43;6.70;;;3.73;;
11924;SDS011;6022;48.768;18.608;2022-11-15T07:56:11;2.27;;;2.07;;
11924;SDS011;6022;48.768;18.608;2022-11-15T07:58:38;4.60;;;3.33;;
11924;SDS011;6022;48.768;18.608;2022-11-15T08:01:07;5.20;;;3.63;;
11924;SDS011;6022;48.768;18.608;2022-11-15T08:03:37;10.93;;;5.80;;
11924;SDS011;6022;48.768;18.608;2022-11-15T08:06:04;5.93;;;4.17;;
11924;SDS011;6022;48.768;18.608;2022-11-15T08:08:31;3.17;;;2.87;;
11924;SDS011;6022;48.768;18.608;2022-11-15T08:10:59;4.87;;;3.50;;
11924;SDS011;6022;48.768;18.608;2022-11-15T08:13:26;5.67;;;3.97;;
11924;SDS011;6022;48.768;18.608;2022-11-15T08:16:01;7.17;;;4.50;;
11924;SDS011;6022;48.768;18.608;2022-11-15T08:18:31;19.10;;;4.43;;
11924;SDS011;6022;48.768;18.608;2022-11-15T08:20:59;5.50;;;3.77;;
11924;SDS011;6022;48.768;18.608;2022-11-15T08:23:27;7.73;;;3.40;;
11924;SDS011;6022;48.768;18.608;2022-11-15T08:26:02;4.97;;;3.13;;
11924;SDS011;6022;48.768;18.608;2022-11-15T08:28:30;5.30;;;3.70;;
11924;SDS011;6022;48.768;18.608;2022-11-15T08:30:58;6.97;;;4.33;;
11924;SDS011;6022;48.768;18.608;2022-11-15T08:33:26;7.27;;;3.80;;
11924;SDS011;6022;48.768;18.608;2022-11-15T08:35:58;5.27;;;4.27;;
11924;SDS011;6022;48.768;18.608;2022-11-15T08:38:27;4.67;;;3.77;;
11924;SDS011;6022;48.768;18.608;2022-11-15T08:41:02;5.40;;;3.63;;
11924;SDS011;6022;48.768;18.608;2022-11-15T08:43:32;5.77;;;3.50;;
11924;SDS011;6022;48.768;18.608;2022-11-15T08:46:00;3.23;;;2.87;;
11924;SDS011;6022;48.768;18.608;2022-11-15T08:48:27;6.07;;;4.00;;
11924;SDS011;6022;48.768;18.608;2022-11-15T08:50:55;5.43;;;3.63;;
11924;SDS011;6022;48.768;18.608;2022-11-15T08:53:23;8.90;;;4.53;;
11924;SDS011;6022;48.768;18.608;2022-11-15T08:55:50;4.10;;;2.97;;
11924;SDS011;6022;48.768;18.608;2022-11-15T08:58:17;5.80;;;3.20;;
11924;SDS011;6022;48.768;18.608;2022-11-15T09:00:45;7.10;;;3.90;;
11924;SDS011;6022;48.768;18.608;2022-11-15T09:03:12;5.53;;;3.50;;
11924;SDS011;6022;48.768;18.608;2022-11-15T09:05:39;4.50;;;3.83;;
11924;SDS011;6022;48.768;18.608;2022-11-15T09:08:06;3.90;;;3.10;;
11924;SDS011;6022;48.768;18.608;2022-11-15T09:10:54;5.80;;;3.80;;
11924;SDS011;6022;48.768;18.608;2022-11-15T09:13:21;5.93;;;3.83;;
11924;SDS011;6022;48.768;18.608;2022-11-15T09:15:48;3.87;;;3.27;;
11924;SDS011;6022;48.768;18.608;2022-11-15T09:18:15;6.10;;;3.90;;
11924;SDS011;6022;48.768;18.608;2022-11-15T09:20:43;7.50;;;3.83;;
11924;SDS011;6022;48.768;18.608;2022-11-15T09:23:11;7.90;;;3.53;;
11924;SDS011;6022;48.768;18.608;2022-11-15T09:25:38;7.20;;;3.50;;
11924;SDS011;6022;48.768;18.608;2022-11-15T09:28:06;6.00;;;4.53;;
11924;SDS011;6022;48.768;18.608;2022-11-15T09:30:34;5.07;;;3.63;;
11924;SDS011;6022;48.768;18.608;2022-11-15T09:33:08;6.43;;;4.20;;
11924;SDS011;6022;48.768;18.608;2022-11-15T09:35:37;5.07;;;3.37;;
11924;SDS011;6022;48.768;18.608;2022-11-15T09:38:04;6.37;;;3.80;;
11924;SDS011;6022;48.768;18.608;2022-11-15T09:40:31;7.03;;;3.90;;
11924;SDS011;6022;48.768;18.608;2022-11-15T09:46:02;5.53;;;4.00;;
11924;SDS011;6022;48.768;18.608;2022-11-15T09:48:49;4.60;;;3.83;;
11924;SDS011;6022;48.768;18.608;2022-11-15T09:51:30;4.20;;;2.97;;
11924;SDS011;6022;48.768;18.608;2022-11-15T09:56:55;10.80;;;3.53;;
11924;SDS011;6022;48.768;18.608;2022-11-15T10:05:45;3.83;;;3.43;;
11924;SDS011;6022;48.768;18.608;2022-11-15T10:11:14;5.30;;;3.90;;
11924;SDS011;6022;48.768;18.608;2022-11-15T10:14:16;4.33;;;2.80;;
11924;SDS011;6022;48.768;18.608;2022-11-15T10:19:50;5.63;;;3.23;;
11924;SDS011;6022;48.768;18.608;2022-11-15T10:22:30;3.80;;;3.43;;
11924;SDS011;6022;48.768;18.608;2022-11-15T10:25:32;5.73;;;3.50;;
11924;SDS011;6022;48.768;18.608;2022-11-15T10:28:03;7.97;;;4.40;;
11924;SDS011;6022;48.768;18.608;2022-11-15T10:30:50;4.80;;;3.50;;
11924;SDS011;6022;48.768;18.608;2022-11-15T10:36:17;6.57;;;3.70;;
11924;SDS011;6022;48.768;18.608;2022-11-15T10:41:39;4.93;;;3.10;;
11924;SDS011;6022;48.768;18.608;2022-11-15T10:46:44;6.63;;;4.27;;
11924;SDS011;6022;48.768;18.608;2022-11-15T10:52:01;4.53;;;3.47;;
11924;SDS011;6022;48.768;18.608;2022-11-15T10:57:15;3.53;;;2.97;;
11924;SDS011;6022;48.768;18.608;2022-11-15T10:59:49;3.10;;;2.60;;
11924;SDS011;6022;48.768;18.608;2022-11-15T11:02:31;6.03;;;4.00;;
11924;SDS011;6022;48.768;18.608;2022-11-15T11:05:04;4.03;;;3.50;;
11924;SDS011;6022;48.768;18.608;2022-11-15T11:07:58;5.03;;;3.50;;
11924;SDS011;6022;48.768;18.608;2022-11-15T11:10:53;4.30;;;3.20;;
11924;SDS011;6022;48.768;18.608;2022-11-15T11:13:30;7.53;;;3.70;;
11924;SDS011;6022;48.768;18.608;2022-11-15T11:25:01;7.77;;;3.47;;
11924;SDS011;6022;48.768;18.608;2022-11-15T11:28:01;6.10;;;3.13;;
11924;SDS011;6022;48.768;18.608;2022-11-15T11:48:03;5.00;;;3.33;;
11924;SDS011;6022;48.768;18.608;2022-11-15T11:51:05;6.53;;;3.60;;
11924;SDS011;6022;48.768;18.608;2022-11-15T11:53:48;5.00;;;4.30;;
11924;SDS011;6022;48.768;18.608;2022-11-15T11:56:33;4.90;;;3.33;;
11924;SDS011;6022;48.768;18.608;2022-11-15T12:01:42;3.40;;;2.77;;
11924;SDS011;6022;48.768;18.608;2022-11-15T12:04:19;4.03;;;2.93;;
11924;SDS011;6022;48.768;18.608;2022-11-15T12:09:59;7.13;;;3.33;;
11924;SDS011;6022;48.768;18.608;2022-11-15T12:15:54;4.83;;;3.20;;
11924;SDS011;6022;48.768;18.608;2022-11-15T12:18:50;4.30;;;3.90;;
11924;SDS011;6022;48.768;18.608;2022-11-15T12:24:03;7.80;;;4.13;;
11924;SDS011;6022;48.768;18.608;2022-11-15T12:32:58;8.40;;;4.00;;
11924;SDS011;6022;48.768;18.608;2022-11-15T12:35:30;5.13;;;3.60;;
11924;SDS011;6022;48.768;18.608;2022-11-15T12:38:08;3.90;;;2.73;;
11924;SDS011;6022;48.768;18.608;2022-11-15T12:41:13;5.30;;;3.13;;
11924;SDS011;6022;48.768;18.608;2022-11-15T12:43:45;7.57;;;3.13;;
11924;SDS011;6022;48.768;18.608;2022-11-15T12:48:47;5.47;;;3.30;;
11924;SDS011;6022;48.768;18.608;2022-11-15T12:51:19;5.07;;;2.73;;
11924;SDS011;6022;48.768;18.608;2022-11-15T13:02:22;5.00;;;3.17;;
11924;SDS011;6022;48.768;18.608;2022-11-15T13:05:20;7.00;;;3.63;;
11924;SDS011;6022;48.768;18.608;2022-11-15T13:17:49;12.07;;;4.40;;
11924;SDS011;6022;48.768;18.608;2022-11-15T13:20:23;4.20;;;3.63;;
11924;SDS011;6022;48.768;18.608;2022-11-15T13:28:27;3.97;;;3.63;;
11924;SDS011;6022;48.768;18.608;2022-11-15T13:33:56;5.40;;;3.77;;
11924;SDS011;6022;48.768;18.608;2022-11-15T13:36:30;8.67;;;3.83;;
11924;SDS011;6022;48.768;18.608;2022-11-15T13:39:01;7.33;;;3.67;;
11924;SDS011;6022;48.768;18.608;2022-11-15T13:41:45;12.20;;;4.13;;
11924;SDS011;6022;48.768;18.608;2022-11-15T13:44:27;6.77;;;4.17;;
11924;SDS011;6022;48.768;18.608;2022-11-15T13:47:24;9.97;;;4.53;;
11924;SDS011;6022;48.768;18.608;2022-11-15T13:49:47;4.93;;;3.40;;
11924;SDS011;6022;48.768;18.608;2022-11-15T13:52:14;5.80;;;3.57;;
11924;SDS011;6022;48.768;18.608;2022-11-15T13:54:45;4.73;;;4.17;;
11924;SDS011;6022;48.768;18.608;2022-11-15T13:57:26;5.73;;;3.83;;
11924;SDS011;6022;48.768;18.608;2022-11-15T14:00:30;5.40;;;4.07;;
11924;SDS011;6022;48.768;18.608;2022-11-15T14:03:17;6.30;;;3.13;;
11924;SDS011;6022;48.768;18.608;2022-11-15T14:11:26;12.67;;;4.73;;
11924;SDS011;6022;48.768;18.608;2022-11-15T14:16:39;9.63;;;5.00;;
11924;SDS011;6022;48.768;18.608;2022-11-15T14:19:56;9.40;;;5.63;;
11924;SDS011;6022;48.768;18.608;2022-11-15T14:22:12;5.13;;;3.60;;
11924;SDS011;6022;48.768;18.608;2022-11-15T14:24:40;4.17;;;3.43;;
11924;SDS011;6022;48.768;18.608;2022-11-15T14:29:55;4.50;;;2.97;;
11924;SDS011;6022;48.768;18.608;2022-11-15T14:34:53;5.00;;;3.87;;
11924;SDS011;6022;48.768;18.608;2022-11-15T14:37:28;6.97;;;4.17;;
11924;SDS011;6022;48.768;18.608;2022-11-15T14:40:02;5.73;;;3.93;;
11924;SDS011;6022;48.768;18.608;2022-11-15T14:42:32;5.47;;;3.90;;
11924;SDS011;6022;48.768;18.608;2022-11-15T14:44:59;4.80;;;3.77;;
11924;SDS011;6022;48.768;18.608;2022-11-15T14:47:26;6.73;;;5.43;;
11924;SDS011;6022;48.768;18.608;2022-11-15T14:49:54;4.03;;;3.63;;
11924;SDS011;6022;48.768;18.608;2022-11-15T14:52:27;7.77;;;4.13;;
11924;SDS011;6022;48.768;18.608;2022-11-15T14:55:00;4.03;;;3.10;;
11924;SDS011;6022;48.768;18.608;2022-11-15T14:57:36;6.13;;;3.33;;
11924;SDS011;6022;48.768;18.608;2022-11-15T15:00:04;3.00;;;2.73;;
11924;SDS011;6022;48.768;18.608;2022-11-15T15:02:32;4.53;;;3.20;;
11924;SDS011;6022;48.768;18.608;2022-11-15T15:04:59;6.87;;;3.00;;
11924;SDS011;6022;48.768;18.608;2022-11-15T15:07:29;4.23;;;2.83;;
11924;SDS011;6022;48.768;18.608;2022-11-15T15:09:56;6.13;;;4.07;;
11924;SDS011;6022;48.768;18.608;2022-11-15T15:12:44;6.80;;;3.57;;
11924;SDS011;6022;48.768;18.608;2022-11-15T15:15:12;7.10;;;4.60;;
11924;SDS011;6022;48.768;18.608;2022-11-15T15:18:00;6.57;;;5.10;;
11924;SDS011;6022;48.768;18.608;2022-11-15T15:20:33;4.17;;;2.87;;
11924;SDS011;6022;48.768;18.608;2022-11-15T15:23:04;6.37;;;3.77;;
11924;SDS011;6022;48.768;18.608;2022-11-15T15:25:35;7.77;;;4.27;;
11924;SDS011;6022;48.768;18.608;2022-11-15T15:28:02;9.20;;;5.33;;
11924;SDS011;6022;48.768;18.608;2022-11-15T15:30:29;3.63;;;3.17;;
11924;SDS011;6022;48.768;18.608;2022-11-15T15:32:57;4.83;;;2.70;;
11924;SDS011;6022;48.768;18.608;2022-11-15T15:35:25;3.73;;;3.03;;
11924;SDS011;6022;48.768;18.608;2022-11-15T15:37:58;3.87;;;3.23;;
11924;SDS011;6022;48.768;18.608;2022-11-15T15:40:27;4.50;;;3.57;;
11924;SDS011;6022;48.768;18.608;2022-11-15T15:42:57;6.30;;;2.57;;
11924;SDS011;6022;48.768;18.608;2022-11-15T15:45:27;3.50;;;3.20;;
11924;SDS011;6022;48.768;18.608;2022-11-15T15:47:56;5.80;;;3.13;;
11924;SDS011;6022;48.768;18.608;2022-11-15T15:50:27;4.60;;;3.07;;
11924;SDS011;6022;48.768;18.608;2022-11-15T15:53:01;5.70;;;3.60;;
11924;SDS011;6022;48.768;18.608;2022-11-15T15:55:30;5.80;;;3.67;;
11924;SDS011;6022;48.768;18.608;2022-11-15T15:57:58;10.93;;;4.33;;
11924;SDS011;6022;48.768;18.608;2022-11-15T16:00:25;5.47;;;3.93;;
11924;SDS011;6022;48.768;18.608;2022-11-15T16:02:53;4.37;;;3.97;;
11924;SDS011;6022;48.768;18.608;2022-11-15T16:05:21;5.63;;;3.83;;
11924;SDS011;6022;48.768;18.608;2022-11-15T16:07:48;7.30;;;3.50;;
11924;SDS011;6022;48.768;18.608;2022-11-15T16:10:17;4.00;;;3.70;;
11924;SDS011;6022;48.768;18.608;2022-11-15T16:12:53;5.13;;;3.47;;
11924;SDS011;6022;48.768;18.608;2022-11-15T16:15:23;7.83;;;4.63;;
11924;SDS011;6022;48.768;18.608;2022-11-15T16:17:57;9.27;;;6.20;;
11924;SDS011;6022;48.768;18.608;2022-11-15T16:23:12;5.80;;;4.70;;
11924;SDS011;6022;48.768;18.608;2022-11-15T16:28:20;5.63;;;3.73;;
11924;SDS011;6022;48.768;18.608;2022-11-15T16:31:03;8.83;;;4.80;;
11924;SDS011;6022;48.768;18.608;2022-11-15T16:33:38;8.47;;;5.17;;
11924;SDS011;6022;48.768;18.608;2022-11-15T16:36:14;13.27;;;3.97;;
11924;SDS011;6022;48.768;18.608;2022-11-15T16:38:56;4.77;;;3.67;;
11924;SDS011;6022;48.768;18.608;2022-11-15T16:41:30;8.47;;;4.03;;
11924;SDS011;6022;48.768;18.608;2022-11-15T16:43:58;6.50;;;3.77;;
11924;SDS011;6022;48.768;18.608;2022-11-15T16:46:26;7.10;;;3.93;;
11924;SDS011;6022;48.768;18.608;2022-11-15T16:48:55;5.40;;;3.60;;
11924;SDS011;6022;48.768;18.608;2022-11-15T16:51:23;4.93;;;4.00;;
11924;SDS011;6022;48.768;18.608;2022-11-15T16:53:50;4.77;;;3.37;;
11924;SDS011;6022;48.768;18.608;2022-11-15T16:58:53;4.53;;;2.80;;
11924;SDS011;6022;48.768;18.608;2022-11-15T17:03:55;4.23;;;3.10;;
11924;SDS011;6022;48.768;18.608;2022-11-15T17:06:23;7.17;;;4.70;;
11924;SDS011;6022;48.768;18.608;2022-11-15T17:08:52;10.37;;;4.50;;
11924;SDS011;6022;48.768;18.608;2022-11-15T17:11:20;6.23;;;3.60;;
11924;SDS011;6022;48.768;18.608;2022-11-15T17:13:48;7.37;;;4.47;;
11924;SDS011;6022;48.768;18.608;2022-11-15T17:16:16;7.67;;;4.47;;
11924;SDS011;6022;48.768;18.608;2022-11-15T17:18:44;5.67;;;3.93;;
11924;SDS011;6022;48.768;18.608;2022-11-15T17:21:17;9.17;;;5.53;;
11924;SDS011;6022;48.768;18.608;2022-11-15T17:23:47;8.23;;;4.40;;
11924;SDS011;6022;48.768;18.608;2022-11-15T17:26:15;6.17;;;4.33;;
11924;SDS011;6022;48.768;18.608;2022-11-15T17:28:55;5.10;;;3.50;;
11924;SDS011;6022;48.768;18.608;2022-11-15T17:31:24;5.63;;;4.13;;
11924;SDS011;6022;48.768;18.608;2022-11-15T17:33:52;7.43;;;4.80;;
11924;SDS011;6022;48.768;18.608;2022-11-15T17:36:19;6.97;;;4.17;;
11924;SDS011;6022;48.768;18.608;2022-11-15T17:38:47;5.27;;;4.50;;
11924;SDS011;6022;48.768;18.608;2022-11-15T17:41:24;8.60;;;4.50;;
11924;SDS011;6022;48.768;18.608;2022-11-15T17:43:52;5.47;;;4.00;;
11924;SDS011;6022;48.768;18.608;2022-11-15T17:46:23;6.50;;;5.00;;
11924;SDS011;6022;48.768;18.608;2022-11-15T17:48:50;6.57;;;3.70;;
11924;SDS011;6022;48.768;18.608;2022-11-15T17:51:19;7.70;;;4.33;;
11924;SDS011;6022;48.768;18.608;2022-11-15T17:53:47;5.17;;;4.10;;
11924;SDS011;6022;48.768;18.608;2022-11-15T17:56:17;7.67;;;4.97;;
11924;SDS011;6022;48.768;18.608;2022-11-15T17:58:47;7.23;;;3.87;;
11924;SDS011;6022;48.768;18.608;2022-11-15T18:01:21;3.90;;;3.47;;